Latest Weather Observations for Bickley

IDW60801

Issued at 8:03 pm WST Saturday 24 June 2017 (issued every 30 minutes, with the page automatically refreshed every 10 minutes)

About weather observations | Map of weather stations | Latest weather observations for WA | Other Formats
Station Details ID: 009240 Name: BICKLEY Lat: -32.01 Lon: 116.14 Height: 384.0 m
Data from the previous 72 hours. | See also: Recent months at Bickley
Date/Time
WST
Temp
°C
App
Temp
°C
Dew
Point
°C
Rel
Hum
%
Delta-T
°C
Wind Press
QNH
hPa
Press
MSL
hPa
Rain since
9am
mm
Dir  Spd
km/h
Gust
km/h
Spd
kts
Gust
kts
24/08:00pm 9.2 4.7 4.4 72 2.2 SE 17 26 9 14 - - 0.0
24/07:30pm 9.3 4.8 4.3 71 2.3 ESE 17 26 9 14 - - 0.0
24/07:00pm 9.5 5.1 4.5 71 2.3 ESE 17 28 9 15 - - 0.0
24/06:30pm 10.0 5.6 4.8 70 2.4 ESE 17 30 9 16 - - 0.0
24/06:00pm 10.3 6.3 5.1 70 2.4 ESE 15 30 8 16 - - 0.0
24/05:30pm 10.5 6.5 5.1 69 2.5 ESE 15 28 8 15 - - 0.0
24/05:00pm 11.5 7.6 5.2 65 3.0 ESE 15 26 8 14 - - 0.0
24/04:30pm 12.1 7.5 5.5 64 3.1 ESE 19 33 10 18 - - 0.0
24/04:00pm 13.2 9.4 5.9 61 3.5 ESE 15 39 8 21 - - 0.0
24/03:30pm 13.7 10.0 6.1 60 3.7 E 15 26 8 14 - - 0.0
24/03:00pm 13.8 10.5 6.4 61 3.6 ESE 13 30 7 16 - - 0.0
24/02:30pm 13.7 10.0 6.3 61 3.6 ESE 15 30 8 16 - - 0.0
24/02:00pm 14.1 9.5 6.7 61 3.7 ESE 20 33 11 18 - - 0.0
24/01:30pm 13.9 9.6 7.0 63 3.4 ESE 19 33 10 18 - - 0.0
24/01:00pm 13.3 8.9 6.4 63 3.4 E 19 33 10 18 - - 0.0
24/12:30pm 13.4 8.1 7.0 65 3.2 E 24 43 13 23 - - 0.0
24/12:00pm 13.4 8.2 7.4 67 3.0 E 24 39 13 21 - - 0.0
24/11:30am 12.7 7.5 7.4 70 2.6 E 24 43 13 23 - - 0.0
24/11:00am 12.6 7.1 7.5 71 2.5 E 26 43 14 23 - - 0.0
24/10:30am 12.1 7.3 7.4 73 2.3 E 22 35 12 19 - - 0.0
24/10:00am 11.5 7.1 7.2 75 2.1 E 20 35 11 19 - - 0.0
24/09:30am 10.7 6.2 7.0 78 1.8 ESE 20 41 11 22 - - 0.0
24/09:00am 9.5 4.5 6.6 82 1.4 ESE 22 35 12 19 - - 0.4
24/08:30am 8.6 3.9 6.2 85 1.1 ESE 20 33 11 18 - - 0.4
24/08:00am 8.0 3.2 5.8 86 1.0 ESE 20 32 11 17 - - 0.4
24/07:30am 7.5 2.6 5.3 86 1.0 ESE 20 33 11 18 - - 0.4
24/07:00am 7.5 2.2 5.1 85 1.1 E 22 32 12 17 - - 0.4
24/06:30am 7.7 2.0 5.0 83 1.2 E 24 33 13 18 - - 0.4
24/06:00am 8.0 2.7 5.1 82 1.3 E 22 33 12 18 - - 0.4
24/05:30am 8.5 3.6 5.3 80 1.5 E 20 35 11 19 - - 0.4
24/05:00am 9.0 4.2 5.6 79 1.6 ESE 20 35 11 19 - - 0.4
24/04:30am 8.9 3.7 5.6 80 1.5 ESE 22 39 12 21 - - 0.4
24/04:00am 8.9 3.0 5.8 81 1.4 E 26 43 14 23 - - 0.4
24/03:30am 9.1 3.6 6.0 81 1.5 E 24 41 13 22 - - 0.4
24/03:00am 9.2 3.4 6.3 82 1.4 ESE 26 43 14 23 - - 0.4
24/02:30am 9.3 4.3 6.6 83 1.3 E 22 32 12 17 - - 0.4
24/02:00am 9.6 5.1 6.9 83 1.3 ESE 20 32 11 17 - - 0.4
24/01:30am 9.6 5.3 7.0 84 1.3 ESE 19 35 10 19 - - 0.4
24/01:00am 9.8 5.4 7.2 84 1.3 ESE 20 41 11 22 - - 0.4
24/12:30am 9.9 4.8 7.5 85 1.2 ESE 24 43 13 23 - - 0.4
24/12:08am 9.8 3.9 7.4 85 1.2 ESE 28 54 15 29 - - 0.4
24/12:00am 9.8 4.7 7.6 86 1.1 ESE 24 41 13 22 - - 0.4
 
Date/Time
WST
Temp
°C
App
Temp
°C
Dew
Point
°C
Rel
Hum
%
Delta-T
°C
Wind Press
QNH
hPa
Press
MSL
hPa
Rain since
9am
mm
Dir  Spd
km/h
Gust
km/h
Spd
kts
Gust
kts
23/11:30pm 10.1 4.6 7.7 85 1.2 ESE 26 46 14 25 - - 0.4
23/11:00pm 10.7 4.3 8.5 86 1.1 ESE 32 63 17 34 - - 0.4
23/10:30pm 10.9 5.3 8.8 87 1.1 ESE 28 50 15 27 - - 0.4
23/10:00pm 11.2 5.7 9.1 87 1.1 ESE 28 48 15 26 - - 0.4
23/09:53pm 11.2 5.7 9.1 87 1.1 ESE 28 48 15 26 - - 0.4
23/09:30pm 11.4 6.3 9.3 87 1.1 ESE 26 48 14 26 - - 0.4
23/09:21pm 11.5 6.0 9.2 86 1.2 ESE 28 48 15 26 - - 0.4
23/09:00pm 11.7 6.7 9.4 86 1.2 ESE 26 43 14 23 - - 0.4
23/08:46pm 11.7 6.3 9.4 86 1.2 ESE 28 52 15 28 - - 0.4
23/08:30pm 11.9 7.7 9.8 87 1.1 ESE 22 39 12 21 - - 0.4
23/08:02pm 11.8 6.5 9.7 87 1.1 ESE 28 48 15 26 - - 0.4
23/08:00pm 11.8 7.2 9.7 87 1.1 ESE 24 41 13 22 - - 0.4
23/07:30pm 12.0 7.5 10.1 88 1.0 ESE 24 46 13 25 - - 0.4
23/07:05pm 12.1 6.9 10.2 88 1.0 ESE 28 50 15 27 - - 0.4
23/07:00pm 12.0 7.5 10.1 88 1.0 ESE 24 50 13 27 - - 0.4
23/06:30pm 12.1 8.4 10.2 88 1.0 ESE 20 43 11 23 - - 0.4
23/06:00pm 12.0 8.8 10.1 88 1.0 ESE 17 28 9 15 - - 0.4
23/05:30pm 12.5 8.8 10.2 86 1.2 ESE 20 33 11 18 - - 0.4
23/05:00pm 13.0 9.0 10.5 85 1.3 E 22 41 12 22 - - 0.4
23/04:30pm 13.4 9.5 10.8 84 1.4 ESE 22 35 12 19 - - 0.4
23/04:00pm 14.2 9.4 11.5 84 1.5 ESE 28 46 15 25 - - 0.4
23/03:59pm 14.1 9.2 11.4 84 1.5 ESE 28 46 15 25 - - 0.4
23/03:30pm 14.5 10.9 12.9 90 0.9 E 24 50 13 27 - - 0.4
23/03:00pm 14.2 11.5 13.4 95 0.5 ESE 20 46 11 25 - - 0.4
23/02:30pm 14.5 10.9 14.2 98 0.2 E 26 46 14 25 - - 0.4
23/02:22pm 13.7 9.5 13.4 98 0.2 ESE 28 48 15 26 - - 0.4
23/02:00pm 14.3 10.7 14.1 99 0.1 ESE 26 54 14 29 - - 0.4
23/01:34pm 13.2 8.8 13.0 99 0.1 ESE 28 48 15 26 - - 0.4
23/01:30pm 13.2 9.2 13.0 99 0.1 ESE 26 48 14 26 - - 0.4
23/01:00pm 12.6 9.2 12.4 99 0.1 ESE 22 41 12 22 - - 0.4
23/12:30pm 12.4 8.1 12.2 99 0.1 ESE 26 46 14 25 - - 0.4
23/12:00pm 12.0 8.0 11.8 99 0.1 ESE 24 50 13 27 - - 0.4
23/11:30am 12.1 8.5 11.9 99 0.1 ESE 22 46 12 25 - - 0.4
23/11:18am 11.9 7.1 11.7 99 0.1 ESE 28 48 15 26 - - 0.4
23/11:00am 11.8 7.4 11.6 99 0.1 ESE 26 48 14 26 - - 0.4
23/10:37am 11.8 7.0 11.6 99 0.1 ESE 28 46 15 25 - - 0.2
23/10:30am 11.9 7.5 11.7 99 0.1 ESE 26 43 14 23 - - 0.2
23/10:00am 11.9 8.8 11.7 99 0.1 ESE 19 35 10 19 - - 0.2
23/09:30am 11.7 8.4 11.5 99 0.1 ESE 20 33 11 18 - - 0.2
23/09:00am 11.7 8.6 11.5 99 0.1 ESE 19 33 10 18 - - 10.0
23/08:30am 11.6 7.5 11.4 99 0.1 ESE 24 41 13 22 - - 9.6
23/08:00am 11.5 8.1 11.3 99 0.1 E 20 33 11 18 - - 8.6
23/07:30am 11.5 7.7 11.3 99 0.1 ESE 22 35 12 19 - - 8.6
23/07:00am 11.5 7.7 11.3 99 0.1 ESE 22 35 12 19 - - 8.4
23/06:30am 11.4 7.2 11.2 99 0.1 ESE 24 41 13 22 - - 8.4
23/06:00am 11.3 7.1 11.1 99 0.1 E 24 46 13 25 - - 8.4
23/05:30am 11.3 7.1 11.1 99 0.1 ESE 24 43 13 23 - - 8.4
23/05:00am 11.2 7.0 11.0 99 0.1 ESE 24 43 13 23 - - 8.4
23/04:30am 11.1 6.8 10.9 99 0.1 ESE 24 41 13 22 - - 8.4
23/04:00am 11.2 7.0 11.0 99 0.1 ESE 24 39 13 21 - - 8.4
23/03:30am 11.1 7.2 10.9 99 0.1 ESE 22 39 12 21 - - 8.4
23/03:00am 10.6 5.4 10.4 99 0.1 E 28 46 15 25 - - 7.8
23/02:52am 10.8 5.7 10.6 99 0.1 ESE 28 46 15 25 - - 7.2
23/02:30am 11.1 7.2 10.9 99 0.1 ESE 22 39 12 21 - - 7.2
23/02:00am 10.9 6.6 10.7 99 0.1 ESE 24 43 13 23 - - 7.0
23/01:30am 11.0 7.1 10.8 99 0.1 ESE 22 33 12 18 - - 7.0
23/01:00am 10.9 7.0 10.7 99 0.1 E 22 43 12 23 - - 6.6
23/12:30am 11.0 7.5 10.8 99 0.1 ESE 20 33 11 18 - - 5.8
23/12:00am 11.0 8.0 10.8 99 0.1 E 17 32 9 17 - - 5.8
 
Date/Time
WST
Temp
°C
App
Temp
°C
Dew
Point
°C
Rel
Hum
%
Delta-T
°C
Wind Press
QNH
hPa
Press
MSL
hPa
Rain since
9am
mm
Dir  Spd
km/h
Gust
km/h
Spd
kts
Gust
kts
22/11:30pm 11.1 7.6 10.9 99 0.1 ESE 20 33 11 18 - - 5.6
22/11:00pm 11.1 7.6 10.9 99 0.1 ESE 20 32 11 17 - - 5.4
22/10:30pm 11.1 8.2 10.9 99 0.1 SE 17 28 9 15 - - 5.4
22/10:00pm 11.0 8.4 10.8 99 0.1 SSE 15 28 8 15 - - 5.2
22/09:30pm 10.9 7.9 10.7 99 0.1 SSE 17 32 9 17 - - 5.0
22/09:00pm 10.8 7.2 10.6 99 0.1 S 20 32 11 17 - - 4.6
22/08:30pm 10.8 8.2 10.6 99 0.1 S 15 26 8 14 - - 4.6
22/08:00pm 10.9 7.9 10.7 99 0.1 SSW 17 30 9 16 - - 4.4
22/07:30pm 10.8 7.8 10.6 99 0.1 SSW 17 33 9 18 - - 4.4
22/07:00pm 10.9 8.7 10.7 99 0.1 SW 13 22 7 12 - - 4.4
22/06:30pm 11.0 7.7 10.8 99 0.1 WSW 19 39 10 21 - - 4.0
22/06:00pm 11.0 7.5 10.8 99 0.1 W 20 33 11 18 - - 3.0
22/05:30pm 11.2 7.3 10.9 98 0.2 W 22 39 12 21 - - 2.6
22/05:00pm 11.4 7.2 11.1 98 0.2 W 24 41 13 22 - - 2.0
22/04:30pm 11.6 8.2 11.3 98 0.2 W 20 32 11 17 - - 1.0
22/04:00pm 11.8 8.7 11.5 98 0.2 W 19 33 10 18 - - 1.0
22/03:30pm 11.6 7.8 11.3 98 0.2 W 22 32 12 17 - - 1.0
22/03:00pm 11.3 7.8 11.0 98 0.2 W 20 32 11 17 - - 1.0
22/02:30pm 11.5 7.3 11.2 98 0.2 W 24 39 13 21 - - 1.0
22/02:00pm 11.7 8.0 11.4 98 0.2 W 22 39 12 21 - - 1.0
22/01:30pm 12.1 7.8 11.9 99 0.1 W 26 46 14 25 - - 1.0
22/01:11pm 12.0 7.2 11.8 99 0.1 WNW 28 46 15 25 - - 1.0
22/01:00pm 12.0 8.4 11.8 99 0.1 WNW 22 39 12 21 - - 1.0
22/12:36pm 11.9 7.1 11.7 99 0.1 WNW 28 54 15 29 - - 1.0
22/12:30pm 11.8 7.7 11.6 99 0.1 W 24 44 13 24 - - 1.0
22/12:12pm 12.1 7.4 11.9 99 0.1 WNW 28 50 15 27 - - 1.0
22/12:00pm 12.3 8.8 12.1 99 0.1 WNW 22 41 12 22 - - 1.0
22/11:30am 12.4 7.8 12.2 99 0.1 WNW 28 59 15 32 - - 1.0
22/11:00am 12.7 7.8 12.5 99 0.1 WNW 30 54 16 29 - - 1.0
22/10:30am 13.1 8.3 12.9 99 0.1 WNW 30 54 16 29 - - 1.0
22/10:15am 13.1 8.7 12.9 99 0.1 NW 28 57 15 31 - - 0.8
22/10:00am 13.3 9.3 13.1 99 0.1 NW 26 48 14 26 - - 0.6
22/09:30am 13.5 8.5 13.3 99 0.1 NW 32 52 17 28 - - 0.4
22/09:00am 13.4 8.3 13.2 99 0.1 NW 32 57 17 31 - - 34.2
22/08:32am 13.5 9.2 13.3 99 0.1 NW 28 48 15 26 - - 34.0
22/08:30am 13.5 9.2 13.3 99 0.1 NW 28 43 15 23 - - 34.0
22/08:00am 13.3 7.6 13.1 99 0.1 NNW 35 65 19 35 - - 33.2
22/07:35am 13.2 8.8 13.0 99 0.1 NNW 28 50 15 27 - - 28.8
22/07:30am 12.9 9.2 12.7 99 0.1 NNW 24 43 13 23 - - 28.8
22/07:00am 11.9 7.9 11.7 99 0.1 N 24 44 13 24 - - 27.8
22/06:30am 11.7 6.9 11.5 99 0.1 N 28 61 15 33 - - 21.2
22/06:24am 11.8 7.0 11.6 99 0.1 NNW 28 61 15 33 - - 21.0
22/06:00am 11.8 7.7 11.6 99 0.1 N 24 46 13 25 - - 18.4
22/05:44am 11.7 6.9 11.5 99 0.1 N 28 50 15 27 - - 16.6
22/05:30am 11.7 7.6 11.5 99 0.1 N 24 46 13 25 - - 15.6
22/05:10am 11.7 6.9 11.5 99 0.1 NNW 28 48 15 26 - - 15.2
22/05:00am 11.6 7.1 11.4 99 0.1 N 26 50 14 27 - - 14.4
22/04:40am 11.4 6.5 11.2 99 0.1 N 28 46 15 25 - - 12.8
22/04:30am 11.4 7.2 11.2 99 0.1 N 24 43 13 23 - - 11.8
22/04:00am 11.2 7.4 11.0 99 0.1 N 22 41 12 22 - - 7.8
22/03:30am 11.3 6.7 11.1 99 0.1 N 26 44 14 24 - - 5.8
22/03:14am 11.3 6.3 11.1 99 0.1 N 28 54 15 29 - - 5.6
22/03:00am 11.2 6.9 10.9 98 0.2 N 24 44 13 24 - - 5.6
22/02:30am 11.3 7.1 11.0 98 0.2 N 24 48 13 26 - - 5.6
22/02:00am 11.1 7.5 10.6 97 0.3 N 20 41 11 22 - - 5.4
22/01:33am 11.1 6.0 10.6 97 0.3 NNW 28 48 15 26 - - 5.4
22/01:30am 11.1 6.4 10.6 97 0.3 N 26 48 14 26 - - 5.4
22/01:00am 10.9 6.5 10.3 96 0.3 N 24 43 13 23 - - 4.8
22/12:30am 11.1 6.0 10.5 96 0.3 NNW 28 52 15 28 - - 3.6
22/12:00am 11.0 5.8 10.2 95 0.4 NNW 28 50 15 27 - - 3.4
 
Date/Time
WST
Temp
°C
App
Temp
°C
Dew
Point
°C
Rel
Hum
%
Delta-T
°C
Wind Press
QNH
hPa
Press
MSL
hPa
Rain since
9am
mm
Dir  Spd
km/h
Gust
km/h
Spd
kts
Gust
kts
21/11:42pm 11.3 6.2 10.5 95 0.4 NNW 28 50 15 27 - - 2.8
21/11:30pm 11.3 7.9 10.4 94 0.5 NNW 19 35 10 19 - - 2.2
21/11:00pm 11.2 7.7 10.1 93 0.6 NNW 19 32 10 17 - - 2.2
21/10:30pm 11.2 6.7 10.0 92 0.6 NNW 24 41 13 22 - - 2.0
21/10:14pm 11.4 6.1 10.0 91 0.7 NNW 28 50 15 27 - - 1.6
21/10:00pm 11.6 7.1 10.0 90 0.8 NNW 24 44 13 24 - - 1.0
21/09:30pm 11.9 8.2 10.1 89 0.9 NNW 20 32 11 17 - - 0.2
21/09:00pm 11.6 7.4 9.9 89 0.9 NNW 22 43 12 23 - - 0.2
21/08:30pm 11.5 7.7 9.8 89 0.9 NNW 20 39 11 21 - - 0.2

Other Formats:

Comma delimited format used in spreadsheet applications
http://www.bom.gov.au/fwo/IDW60801/IDW60801.95610.axf

JavaScript Object Notation format (JSON) in row-major order
http://www.bom.gov.au/fwo/IDW60801/IDW60801.95610.json